createdAt,value
2023-02-12T00:08:26.248Z,969.83
2023-02-12T00:23:28.111Z,969.87
2023-02-12T00:38:30.017Z,970.04
2023-02-12T00:53:31.844Z,970.08
2023-02-12T01:08:33.697Z,970.13
2023-02-12T01:23:35.584Z,969.89
2023-02-12T01:38:37.504Z,970.01
2023-02-12T01:53:39.367Z,970.24
2023-02-12T02:08:41.315Z,970.29
2023-02-12T02:23:43.355Z,969.96
2023-02-12T02:38:45.272Z,969.95
2023-02-12T02:53:47.114Z,969.96
2023-02-12T03:08:48.989Z,970.11
2023-02-12T03:23:51.054Z,970.79
2023-02-12T03:38:53.034Z,970.62
2023-02-12T03:53:54.926Z,970.74
2023-02-12T04:08:56.874Z,971.11
2023-02-12T04:23:58.718Z,971.19
2023-02-12T04:39:00.548Z,971.58
2023-02-12T04:54:02.398Z,971.61
2023-02-12T05:09:04.458Z,971.88
2023-02-12T05:24:06.339Z,971.76
2023-02-12T05:39:08.175Z,971.53
2023-02-12T05:54:10.017Z,971.75
2023-02-12T06:09:11.917Z,972.07
2023-02-12T06:24:13.741Z,972.12
2023-02-12T06:39:15.704Z,971.83
2023-02-12T06:54:17.595Z,971.82
2023-02-12T07:09:19.432Z,971.89
2023-02-12T07:24:21.289Z,972.15
2023-02-12T07:39:23.167Z,972.33
2023-02-12T07:54:25.029Z,972.01
2023-02-12T08:09:26.882Z,971.79
2023-02-12T08:24:28.758Z,971.85
2023-02-12T08:39:30.628Z,972.28
2023-02-12T08:54:32.479Z,972.17
2023-02-12T09:09:34.345Z,972.09
2023-02-12T09:24:36.215Z,972.22
2023-02-12T09:39:38.053Z,972.53
2023-02-12T09:54:39.966Z,972.66
2023-02-12T10:09:41.829Z,972.8
2023-02-12T10:24:43.675Z,972.65
2023-02-12T10:39:45.539Z,972.58
2023-02-12T10:54:47.701Z,972.55
2023-02-12T11:09:49.491Z,972.62
2023-02-12T11:24:51.328Z,972.51
2023-02-12T11:39:53.219Z,972.55
2023-02-12T11:54:55.282Z,972.54
2023-02-12T12:09:57.150Z,972.36
2023-02-12T12:24:59.082Z,972.33
2023-02-12T12:40:00.970Z,972.29
2023-02-12T12:55:02.880Z,972.25
2023-02-12T13:10:04.721Z,972.32
2023-02-12T13:25:06.613Z,972.21
2023-02-12T13:40:08.440Z,972.12
2023-02-12T13:55:10.322Z,972.1
2023-02-12T14:10:12.173Z,971.87
2023-02-12T14:25:14.000Z,971.97
2023-02-12T14:40:15.890Z,971.73
2023-02-12T14:55:17.761Z,971.62
2023-02-12T15:10:19.714Z,971.48
2023-02-12T15:25:21.540Z,971.41
2023-02-12T15:40:23.386Z,971.48
2023-02-12T15:55:25.258Z,971.25
2023-02-12T16:10:27.199Z,971.44
2023-02-12T16:25:29.094Z,971.12
2023-02-12T16:40:31.001Z,970.88
2023-02-12T16:55:32.900Z,970.97
2023-02-12T17:10:34.862Z,971.02
2023-02-12T17:25:36.686Z,971.22
2023-02-12T17:40:38.511Z,971.15
2023-02-12T17:55:40.338Z,971.29
2023-02-12T18:10:42.185Z,971.29
2023-02-12T18:25:44.059Z,971.26
2023-02-12T18:40:46.130Z,971.12
2023-02-12T18:55:47.990Z,970.91
2023-02-12T19:10:49.973Z,970.84
2023-02-12T19:25:51.821Z,970.63
2023-02-12T19:40:53.837Z,970.43
2023-02-12T19:55:55.809Z,970.24
2023-02-12T20:10:58.095Z,969.97
2023-02-12T20:26:00.065Z,969.75
2023-02-12T20:41:03.299Z,969.58
2023-02-12T20:56:05.183Z,969.25
2023-02-12T21:11:07.017Z,969.01
2023-02-12T21:26:08.846Z,968.87
2023-02-12T21:41:10.719Z,968.73
2023-02-12T21:56:12.768Z,968.44
2023-02-12T22:11:14.591Z,968.14
2023-02-12T22:26:16.389Z,968.02
2023-02-12T22:41:18.221Z,967.93
2023-02-12T22:56:20.053Z,967.8
2023-02-12T23:11:21.870Z,967.62
2023-02-12T23:26:23.722Z,967.38
2023-02-12T23:41:25.567Z,967.23
2023-02-12T23:56:27.422Z,967.06
